createdAt,value
2022-07-25T00:02:25.068Z,7.50
2022-07-25T00:07:48.869Z,9.00
2022-07-25T00:10:17.235Z,8.00
2022-07-25T00:12:43.732Z,8.00
2022-07-25T00:15:12.040Z,8.00
2022-07-25T00:17:38.466Z,8.00
2022-07-25T00:22:48.672Z,7.50
2022-07-25T00:25:16.974Z,8.20
2022-07-25T00:27:43.402Z,9.00
2022-07-25T00:30:09.853Z,9.00
2022-07-25T00:32:36.385Z,8.00
2022-07-25T00:37:50.580Z,9.00
2022-07-25T00:40:17.001Z,8.00
2022-07-25T00:42:43.533Z,7.50
2022-07-25T00:45:10.005Z,7.00
2022-07-25T00:47:36.485Z,7.00
2022-07-25T00:52:57.538Z,8.00
2022-07-25T00:55:27.622Z,8.50
2022-07-25T00:57:55.911Z,8.80
2022-07-25T01:00:22.335Z,7.50
2022-07-25T01:02:48.818Z,8.00
2022-07-25T01:08:13.604Z,8.80
2022-07-25T01:10:41.912Z,8.40
2022-07-25T01:13:11.130Z,10.50
2022-07-25T01:15:39.558Z,8.00
2022-07-25T01:18:06.109Z,7.00
2022-07-25T01:23:16.376Z,10.00
2022-07-25T01:25:44.670Z,8.40
2022-07-25T01:28:11.932Z,8.00
2022-07-25T01:30:39.258Z,9.67
2022-07-25T01:33:07.058Z,11.00
2022-07-25T01:38:20.556Z,10.00
2022-07-25T01:40:47.070Z,10.00
2022-07-25T01:43:13.615Z,10.00
2022-07-25T01:45:41.923Z,9.60
2022-07-25T01:48:09.178Z,11.00
2022-07-25T01:53:31.443Z,8.60
2022-07-25T01:55:58.730Z,11.67
2022-07-25T01:58:30.224Z,10.00
2022-07-25T02:00:56.747Z,11.00
2022-07-25T02:03:24.034Z,11.00
2022-07-25T02:08:44.590Z,10.00
2022-07-25T02:11:12.916Z,10.00
2022-07-25T02:13:41.221Z,8.20
2022-07-25T02:16:09.601Z,10.40
2022-07-25T02:18:36.847Z,9.67
2022-07-25T02:23:50.659Z,9.20
2022-07-25T02:26:18.984Z,10.80
2022-07-25T02:28:46.252Z,11.00
2022-07-25T02:31:12.776Z,10.00
2022-07-25T02:33:41.157Z,9.00
2022-07-25T02:38:53.150Z,11.00
2022-07-25T02:41:20.528Z,15.00
2022-07-25T02:43:48.004Z,22.00
2022-07-25T02:46:14.545Z,14.00
2022-07-25T02:48:41.224Z,19.00
2022-07-25T02:54:01.852Z,15.50
2022-07-25T02:56:29.922Z,16.33
2022-07-25T02:58:56.863Z,13.50
2022-07-25T03:01:23.414Z,14.00
2022-07-25T03:03:50.908Z,15.67
2022-07-25T03:09:12.129Z,18.00
2022-07-25T03:11:38.659Z,18.50
2022-07-25T03:14:05.486Z,19.00
2022-07-25T03:16:33.045Z,15.67
2022-07-25T03:18:59.541Z,14.00
2022-07-25T03:24:11.332Z,14.00
2022-07-25T03:26:38.715Z,13.00
2022-07-25T03:29:05.994Z,13.67
2022-07-25T03:31:33.403Z,13.33
2022-07-25T03:34:00.708Z,10.00
2022-07-25T03:39:20.975Z,12.50
2022-07-25T03:41:47.558Z,12.50
2022-07-25T03:44:14.010Z,12.00
2022-07-25T03:46:41.338Z,14.67
2022-07-25T03:49:07.873Z,11.00
2022-07-25T03:54:18.275Z,12.50
2022-07-25T03:56:45.198Z,12.00
2022-07-25T03:59:12.519Z,12.00
2022-07-25T04:01:39.030Z,13.00
2022-07-25T04:04:06.773Z,12.00
2022-07-25T04:09:18.550Z,12.00
2022-07-25T04:11:45.825Z,11.67
2022-07-25T04:14:14.157Z,8.80
2022-07-25T04:16:41.437Z,11.00
2022-07-25T04:19:07.924Z,13.00
2022-07-25T04:24:29.358Z,10.50
2022-07-25T04:26:56.626Z,9.33
2022-07-25T04:29:23.882Z,10.00
2022-07-25T04:31:51.226Z,10.67
2022-07-25T04:34:17.712Z,9.00
2022-07-25T04:39:40.794Z,9.60
2022-07-25T04:42:10.035Z,7.83
2022-07-25T04:44:37.308Z,7.00
2022-07-25T04:47:04.547Z,7.50
2022-07-25T04:49:31.016Z,8.00
2022-07-25T04:54:46.112Z,7.00
2022-07-25T04:57:14.350Z,7.00
2022-07-25T04:59:43.636Z,8.17
2022-07-25T05:02:11.996Z,8.00
2022-07-25T05:04:44.815Z,7.00
2022-07-25T05:10:08.273Z,6.00
2022-07-25T05:12:35.094Z,8.00
2022-07-25T05:15:01.554Z,7.00
2022-07-25T05:17:28.306Z,7.00
2022-07-25T05:19:55.783Z,6.00
2022-07-25T05:25:16.061Z,7.00
2022-07-25T05:27:45.239Z,6.33
2022-07-25T05:30:13.478Z,8.20
2022-07-25T05:32:41.772Z,8.00
2022-07-25T05:35:08.217Z,7.00
2022-07-25T05:40:19.850Z,10.00
2022-07-25T05:42:46.346Z,18.50
2022-07-25T05:45:13.647Z,9.00
2022-07-25T05:47:40.055Z,8.50
2022-07-25T05:50:06.514Z,7.00
2022-07-25T05:55:17.641Z,7.00
2022-07-25T05:57:44.006Z,5.67
2022-07-25T06:00:10.361Z,7.00
2022-07-25T06:02:37.687Z,7.00
2022-07-25T06:05:05.002Z,6.25
2022-07-25T06:10:25.036Z,6.00
2022-07-25T06:12:51.436Z,5.67
2022-07-25T06:15:23.123Z,5.00
2022-07-25T06:17:53.531Z,5.33
2022-07-25T06:20:20.783Z,6.00
2022-07-25T06:25:30.933Z,6.00
2022-07-25T06:27:58.901Z,6.00
2022-07-25T06:30:25.314Z,6.00
2022-07-25T06:32:51.719Z,5.00
2022-07-25T06:35:18.204Z,5.00
2022-07-25T06:40:28.620Z,7.00
2022-07-25T06:42:55.044Z,6.50
2022-07-25T06:45:21.419Z,6.00
2022-07-25T06:47:47.844Z,6.00
2022-07-25T06:50:15.070Z,5.50
2022-07-25T06:55:25.209Z,7.00
2022-07-25T06:57:51.646Z,6.50
2022-07-25T07:00:18.867Z,6.00
2022-07-25T07:02:45.282Z,8.00
2022-07-25T07:05:13.532Z,6.00
2022-07-25T07:10:24.707Z,5.67
2022-07-25T07:12:54.650Z,9.29
2022-07-25T07:15:21.758Z,6.00
2022-07-25T07:17:48.124Z,5.00
2022-07-25T07:20:15.354Z,4.00
2022-07-25T07:25:28.383Z,6.00
2022-07-25T07:27:55.048Z,2.33
2022-07-25T07:30:24.458Z,6.00
2022-07-25T07:32:51.827Z,5.33
2022-07-25T07:35:19.067Z,5.00
2022-07-25T07:40:40.151Z,5.00
2022-07-25T07:43:06.563Z,5.00
2022-07-25T07:45:32.917Z,6.00
2022-07-25T07:47:59.287Z,4.00
2022-07-25T07:50:25.653Z,5.00
2022-07-25T07:52:52.089Z,4.00
2022-07-25T07:55:18.743Z,4.00
2022-07-25T07:57:45.109Z,4.00
2022-07-25T08:00:16.427Z,4.25
2022-07-25T08:02:43.138Z,5.00
2022-07-25T08:05:09.551Z,5.33
2022-07-25T08:07:35.908Z,4.00
2022-07-25T08:10:02.290Z,4.00
2022-07-25T08:12:28.660Z,4.00
2022-07-25T08:14:55.033Z,4.67
2022-07-25T08:17:24.974Z,4.00
2022-07-25T08:19:54.795Z,5.33
2022-07-25T08:22:21.148Z,4.00
2022-07-25T08:24:47.587Z,5.00
2022-07-25T08:27:15.082Z,4.50
2022-07-25T08:29:41.459Z,5.33
2022-07-25T08:32:07.865Z,4.00
2022-07-25T08:34:34.204Z,4.67
2022-07-25T08:37:00.590Z,4.00
2022-07-25T08:39:26.968Z,4.00
2022-07-25T08:41:53.355Z,4.33
2022-07-25T08:44:19.718Z,4.00
2022-07-25T08:46:46.177Z,4.33
2022-07-25T08:49:12.665Z,5.00
2022-07-25T08:51:39.090Z,4.00
2022-07-25T08:54:05.627Z,4.00
2022-07-25T08:56:33.763Z,4.67
2022-07-25T08:59:00.147Z,4.67
2022-07-25T09:01:29.257Z,4.33
2022-07-25T09:03:57.943Z,4.00
2022-07-25T09:06:24.320Z,4.00
2022-07-25T09:08:50.753Z,5.00
2022-07-25T09:11:17.994Z,5.00
2022-07-25T09:13:44.368Z,5.00
2022-07-25T09:16:11.736Z,6.00
2022-07-25T09:18:40.766Z,4.00
2022-07-25T09:21:07.173Z,4.00
2022-07-25T09:23:33.551Z,5.00
2022-07-25T09:28:53.939Z,4.67
2022-07-25T09:31:21.261Z,6.00
2022-07-25T09:33:47.709Z,4.33
2022-07-25T09:36:14.949Z,5.00
2022-07-25T09:38:41.317Z,4.33
2022-07-25T09:44:01.971Z,4.00
2022-07-25T09:46:28.377Z,4.33
2022-07-25T09:48:54.804Z,5.00
2022-07-25T09:51:21.209Z,5.33
2022-07-25T09:53:47.659Z,6.33
2022-07-25T09:59:09.782Z,6.00
2022-07-25T10:01:37.112Z,5.00
2022-07-25T10:04:03.669Z,6.00
2022-07-25T10:06:30.153Z,5.00
2022-07-25T10:08:56.506Z,5.67
2022-07-25T10:11:22.867Z,4.00
2022-07-25T10:13:49.229Z,5.00
2022-07-25T10:16:16.478Z,5.00
2022-07-25T10:18:42.855Z,4.67
2022-07-25T10:21:25.099Z,5.25
2022-07-25T10:23:52.958Z,5.00
2022-07-25T10:29:03.489Z,5.67
2022-07-25T10:31:29.923Z,4.67
2022-07-25T10:33:56.395Z,4.00
2022-07-25T10:36:22.768Z,4.00
2022-07-25T10:38:49.200Z,4.00
2022-07-25T10:44:01.439Z,8.00
2022-07-25T10:46:28.702Z,7.00
2022-07-25T10:48:55.100Z,7.00
2022-07-25T10:51:21.505Z,6.00
2022-07-25T10:53:47.861Z,6.00
2022-07-25T10:59:10.176Z,5.00
2022-07-25T11:01:36.751Z,6.00
2022-07-25T11:04:03.230Z,5.00
2022-07-25T11:06:29.626Z,6.00
2022-07-25T11:08:55.986Z,6.00
2022-07-25T11:14:16.345Z,6.00
2022-07-25T11:16:42.840Z,6.00
2022-07-25T11:19:10.229Z,6.25
2022-07-25T11:21:37.504Z,6.00
2022-07-25T11:24:03.876Z,5.00
2022-07-25T11:29:15.030Z,5.50
2022-07-25T11:31:41.777Z,5.33
2022-07-25T11:34:09.095Z,6.00
2022-07-25T11:36:35.470Z,7.00
2022-07-25T11:39:02.714Z,6.00
2022-07-25T11:44:22.958Z,5.00
2022-07-25T11:46:49.332Z,6.00
2022-07-25T11:49:15.754Z,5.67
2022-07-25T11:51:42.229Z,6.33
2022-07-25T11:54:09.481Z,4.75
2022-07-25T11:59:29.568Z,6.00
2022-07-25T12:01:55.985Z,7.00
2022-07-25T12:04:23.277Z,6.00
2022-07-25T12:06:49.707Z,5.00
2022-07-25T12:09:18.868Z,5.00
2022-07-25T12:14:35.277Z,5.00
2022-07-25T12:17:02.016Z,6.00
2022-07-25T12:19:28.455Z,7.00
2022-07-25T12:21:54.837Z,6.33
2022-07-25T12:24:22.069Z,6.00
2022-07-25T12:29:42.377Z,7.00
2022-07-25T12:32:09.647Z,8.00
2022-07-25T12:34:36.907Z,6.50
2022-07-25T12:37:03.381Z,7.50
2022-07-25T12:39:29.770Z,8.00
2022-07-25T12:44:41.965Z,8.00
2022-07-25T12:47:08.422Z,6.50
2022-07-25T12:49:37.596Z,7.33
2022-07-25T12:52:05.197Z,7.00
2022-07-25T12:54:31.572Z,6.50
2022-07-25T12:59:41.799Z,8.00
2022-07-25T13:02:08.310Z,7.00
2022-07-25T13:04:37.493Z,7.00
2022-07-25T13:07:04.767Z,6.50
2022-07-25T13:09:32.034Z,7.00
2022-07-25T13:14:55.021Z,7.00
2022-07-25T13:17:26.561Z,7.00
2022-07-25T13:19:53.803Z,7.00
2022-07-25T13:22:21.068Z,7.75
2022-07-25T13:24:47.479Z,7.33
2022-07-25T13:29:57.905Z,8.00
2022-07-25T13:32:27.112Z,8.00
2022-07-25T13:34:54.352Z,7.50
2022-07-25T13:37:20.721Z,7.00
2022-07-25T13:39:50.717Z,7.43
2022-07-25T13:45:33.815Z,7.00
2022-07-25T13:48:27.255Z,8.00
2022-07-25T13:50:48.595Z,7.00
2022-07-25T13:53:15.039Z,8.00
2022-07-25T13:55:43.318Z,7.80
2022-07-25T13:58:09.777Z,10.00
2022-07-25T14:00:36.257Z,9.00
2022-07-25T14:03:06.235Z,8.71
2022-07-25T14:05:32.645Z,8.00
2022-07-25T14:07:59.162Z,8.00
2022-07-25T14:10:25.639Z,7.00
2022-07-25T14:15:38.834Z,7.33
2022-07-25T14:18:05.195Z,6.00
2022-07-25T14:20:31.710Z,7.00
2022-07-25T14:22:58.101Z,7.00
2022-07-25T14:25:24.488Z,6.33
2022-07-25T14:30:35.592Z,6.75
2022-07-25T14:33:01.974Z,7.50
2022-07-25T14:35:32.267Z,7.00
2022-07-25T14:37:59.217Z,7.00
2022-07-25T14:40:25.637Z,8.00
2022-07-25T14:45:46.086Z,6.00
2022-07-25T14:48:12.466Z,6.00
2022-07-25T14:50:39.708Z,7.50
2022-07-25T14:53:06.156Z,8.00
2022-07-25T14:55:35.718Z,9.00
2022-07-25T15:00:57.537Z,6.00
2022-07-25T15:03:24.056Z,8.00
2022-07-25T15:05:50.438Z,6.00
2022-07-25T15:08:17.666Z,6.00
2022-07-25T15:10:44.060Z,6.67
2022-07-25T15:15:54.131Z,6.00
2022-07-25T15:18:21.398Z,5.00
2022-07-25T15:20:47.797Z,6.00
2022-07-25T15:23:15.028Z,6.00
2022-07-25T15:31:21.568Z,5.00
2022-07-25T15:33:47.976Z,6.00
2022-07-25T15:36:15.252Z,5.00
2022-07-25T15:38:41.608Z,5.33
2022-07-25T15:41:07.983Z,5.00
2022-07-25T15:46:28.272Z,5.33
2022-07-25T15:48:54.724Z,6.00
2022-07-25T15:51:21.120Z,5.00
2022-07-25T15:53:47.497Z,6.00
2022-07-25T15:56:14.735Z,6.25
2022-07-25T16:01:35.340Z,6.67
2022-07-25T16:04:01.869Z,6.00
2022-07-25T16:06:29.147Z,6.00
2022-07-25T16:08:56.380Z,7.25
2022-07-25T16:11:23.593Z,6.00
2022-07-25T16:16:34.691Z,6.00
2022-07-25T16:19:01.942Z,7.00
2022-07-25T16:21:28.305Z,6.00
2022-07-25T16:23:54.688Z,6.50
2022-07-25T16:26:21.912Z,7.00
2022-07-25T16:31:44.206Z,6.00
2022-07-25T16:34:10.630Z,5.00
2022-07-25T16:36:37.033Z,6.67
2022-07-25T16:39:04.545Z,6.00
2022-07-25T16:41:32.034Z,7.00
2022-07-25T16:46:43.152Z,7.00
2022-07-25T16:49:09.959Z,5.00
2022-07-25T16:51:37.692Z,7.00
2022-07-25T16:54:05.087Z,6.00
2022-07-25T16:56:31.482Z,3.00
2022-07-25T17:01:52.630Z,6.75
2022-07-25T17:04:19.947Z,6.00
2022-07-25T17:06:47.200Z,6.25
2022-07-25T17:09:14.450Z,6.25
2022-07-25T17:11:41.689Z,7.00
2022-07-25T17:16:53.117Z,5.25
2022-07-25T17:19:20.339Z,8.00
2022-07-25T17:21:46.708Z,6.00
2022-07-25T17:24:13.085Z,6.00
2022-07-25T17:26:39.478Z,8.00
2022-07-25T17:31:50.699Z,7.00
2022-07-25T17:34:17.112Z,7.00
2022-07-25T17:36:43.496Z,7.33
2022-07-25T17:39:10.989Z,6.75
2022-07-25T17:41:38.468Z,6.00
2022-07-25T17:46:48.493Z,5.67
2022-07-25T17:49:15.834Z,6.00
2022-07-25T17:51:42.275Z,7.67
2022-07-25T17:54:10.035Z,7.00
2022-07-25T17:56:36.611Z,6.00
2022-07-25T18:01:58.043Z,7.00
2022-07-25T18:04:24.536Z,6.00
2022-07-25T18:06:51.782Z,6.50
2022-07-25T18:09:19.037Z,7.00
2022-07-25T18:11:48.215Z,6.50
2022-07-25T18:17:00.406Z,5.75
2022-07-25T18:19:26.779Z,7.00
2022-07-25T18:21:53.166Z,6.00
2022-07-25T18:24:20.403Z,7.00
2022-07-25T18:26:46.842Z,6.00
2022-07-25T18:31:57.911Z,7.00
2022-07-25T18:34:24.278Z,7.00
2022-07-25T18:36:50.669Z,6.00
2022-07-25T18:39:17.041Z,7.00
2022-07-25T18:41:43.419Z,6.00
2022-07-25T18:47:04.599Z,6.00
2022-07-25T18:49:31.299Z,5.67
2022-07-25T18:51:57.644Z,6.00
2022-07-25T18:54:24.198Z,6.00
2022-07-25T18:56:50.559Z,6.00
2022-07-25T19:02:02.895Z,5.75
2022-07-25T19:04:30.308Z,12.33
2022-07-25T19:06:56.709Z,7.00
2022-07-25T19:09:23.083Z,6.00
2022-07-25T19:11:50.371Z,10.00
2022-07-25T19:17:03.329Z,7.00
2022-07-25T19:19:30.602Z,7.75
2022-07-25T19:21:56.985Z,7.00
2022-07-25T19:24:23.350Z,7.00
2022-07-25T19:26:49.799Z,7.00
2022-07-25T19:32:01.700Z,6.25
2022-07-25T19:34:28.101Z,7.00
2022-07-25T19:36:55.369Z,7.00
2022-07-25T19:39:21.853Z,8.00
2022-07-25T19:41:48.236Z,7.00
2022-07-25T19:47:12.054Z,7.00
2022-07-25T19:49:38.582Z,6.33
2022-07-25T19:52:04.988Z,7.67
2022-07-25T19:54:32.239Z,7.00
2022-07-25T19:56:58.721Z,7.50
2022-07-25T20:02:09.436Z,9.50
2022-07-25T20:04:37.702Z,7.20
2022-07-25T20:07:06.928Z,7.17
2022-07-25T20:09:33.396Z,7.00
2022-07-25T20:11:59.810Z,6.00
2022-07-25T20:17:11.228Z,11.00
2022-07-25T20:19:39.583Z,10.00
2022-07-25T20:22:06.870Z,9.00
2022-07-25T20:24:33.284Z,8.50
2022-07-25T20:26:59.805Z,9.00
2022-07-25T20:29:27.154Z,10.00
2022-07-25T20:31:54.482Z,11.00
2022-07-25T20:34:22.857Z,9.40
2022-07-25T20:36:49.364Z,9.00
2022-07-25T20:39:15.900Z,8.00
2022-07-25T20:41:44.652Z,8.00
2022-07-25T20:44:12.074Z,7.00
2022-07-25T20:46:39.431Z,10.00
2022-07-25T20:49:07.060Z,9.00
2022-07-25T20:51:33.765Z,9.00
2022-07-25T20:54:00.230Z,9.50
2022-07-25T20:56:28.566Z,9.20
2022-07-25T20:58:56.874Z,8.40
2022-07-25T21:01:23.282Z,8.00
2022-07-25T21:03:49.811Z,9.00
2022-07-25T21:06:16.330Z,9.00
2022-07-25T21:08:44.617Z,8.00
2022-07-25T21:11:11.877Z,9.33
2022-07-25T21:13:41.812Z,9.14
2022-07-25T21:16:09.234Z,9.33
2022-07-25T21:18:35.712Z,9.50
2022-07-25T21:21:03.043Z,10.67
2022-07-25T21:23:29.479Z,8.00
2022-07-25T21:25:56.154Z,9.00
2022-07-25T21:28:22.578Z,10.00
2022-07-25T21:30:49.846Z,11.00
2022-07-25T21:33:16.367Z,11.50
2022-07-25T21:35:51.177Z,10.00
2022-07-25T21:38:26.428Z,10.00
2022-07-25T21:40:54.945Z,9.00
2022-07-25T21:43:21.424Z,11.00
2022-07-25T21:45:47.908Z,9.00
2022-07-25T21:48:15.167Z,10.00
2022-07-25T21:50:43.642Z,9.00
2022-07-25T21:53:11.335Z,10.00
2022-07-25T21:55:38.634Z,10.67
2022-07-25T21:58:05.898Z,11.33
2022-07-25T22:00:33.396Z,9.00
2022-07-25T22:02:59.988Z,11.00
2022-07-25T22:05:27.354Z,10.67
2022-07-25T22:07:54.616Z,11.33
2022-07-25T22:10:21.048Z,9.50
2022-07-25T22:12:47.534Z,10.50
2022-07-25T22:15:14.812Z,11.00
2022-07-25T22:20:35.188Z,11.00
2022-07-25T22:23:01.691Z,10.00
2022-07-25T22:25:28.111Z,10.50
2022-07-25T22:27:55.414Z,10.00
2022-07-25T22:30:21.864Z,12.00
2022-07-25T22:35:33.805Z,12.00
2022-07-25T22:38:01.063Z,10.33
2022-07-25T22:40:27.629Z,11.00
2022-07-25T22:42:54.898Z,11.00
2022-07-25T22:45:21.418Z,11.00
2022-07-25T22:50:43.602Z,11.67
2022-07-25T22:53:11.916Z,11.00
2022-07-25T22:55:39.170Z,11.00
2022-07-25T22:58:05.635Z,10.50
2022-07-25T23:00:32.057Z,11.00
2022-07-25T23:05:53.766Z,11.00
2022-07-25T23:08:20.424Z,11.00
2022-07-25T23:10:47.737Z,10.33
2022-07-25T23:13:14.991Z,11.33
2022-07-25T23:15:49.978Z,11.00
2022-07-25T23:21:11.747Z,11.00
2022-07-25T23:23:39.027Z,11.33
2022-07-25T23:26:06.305Z,10.00
2022-07-25T23:28:33.623Z,12.33
2022-07-25T23:31:01.431Z,11.67
2022-07-25T23:36:14.172Z,11.67
2022-07-25T23:38:40.620Z,12.50
2022-07-25T23:41:07.974Z,12.33
2022-07-25T23:43:51.147Z,13.50
2022-07-25T23:46:25.802Z,12.50
2022-07-25T23:51:40.852Z,15.00
2022-07-25T23:54:07.382Z,16.00
2022-07-25T23:56:33.911Z,13.00
2022-07-25T23:59:00.397Z,14.00
